Time;durP1;ratioP1;P1;durP2;ratioP2;P2;SDS_P1;SDS_P2;PMS_P1;PMS_P2;Temp;Humidity;BMP_temperature;BMP_pressure;BME280_temperature;BME280_humidity;BME280_pressure;Samples;Min_cycle;Max_cycle;Signal;HPM_P1;HPM_P2
2022/09/17 00:00:47;;;;;;;14.98;1.58;;;;;;;11.13;100.00;100424.72;6249698;28;20802;-72
2022/09/17 00:03:51;;;;;;;2.85;0.65;;;;;;;11.16;100.00;100423.66;6250055;28;20089;-72
2022/09/17 00:06:52;;;;;;;5.90;0.88;;;;;;;11.16;100.00;100423.66;6249955;28;20041;-74
2022/09/17 00:09:55;;;;;;;3.75;0.73;;;;;;;11.06;100.00;100422.53;6249823;28;20049;-72
2022/09/17 00:12:56;;;;;;;3.60;0.60;;;;;;;11.13;100.00;100423.88;6249941;28;20132;-72
2022/09/17 00:15:57;;;;;;;6.38;1.27;;;;;;;11.11;100.00;100431.81;6249676;28;20185;-74
2022/09/17 00:19:00;;;;;;;3.85;0.82;;;;;;;11.16;100.00;100434.19;6249789;28;20056;-72
2022/09/17 00:22:01;;;;;;;8.45;1.40;;;;;;;11.14;100.00;100430.81;6249229;28;20049;-72
2022/09/17 00:25:07;;;;;;;4.18;0.68;;;;;;;11.11;100.00;100426.56;6249067;28;20421;-73
2022/09/17 00:28:08;;;;;;;1.73;0.75;;;;;;;11.14;100.00;100436.06;6249453;28;20049;-72
2022/09/17 00:31:10;;;;;;;2.65;0.68;;;;;;;11.16;100.00;100437.66;6249357;28;20053;-75
2022/09/17 00:34:11;;;;;;;4.88;0.50;;;;;;;11.13;100.00;100442.28;6248936;28;20501;-75
2022/09/17 00:37:13;;;;;;;3.60;0.57;;;;;;;11.16;100.00;100429.75;6248609;28;20042;-72
2022/09/17 00:40:16;;;;;;;3.25;0.60;;;;;;;11.06;100.00;100440.94;6263099;28;20489;-72
2022/09/17 00:43:33;;;;;;;2.47;0.82;;;;;;;11.10;100.00;100443.28;6274229;28;20056;-72
2022/09/17 00:46:38;;;;;;;2.80;0.60;;;;;;;11.08;100.00;100446.94;6273329;28;20049;-72
2022/09/17 00:49:39;;;;;;;3.70;0.65;;;;;;;11.09;100.00;100446.88;6273823;28;20052;-73
2022/09/17 00:52:45;;;;;;;5.00;1.10;;;;;;;11.04;100.00;100446.31;6273566;28;20082;-72
2022/09/17 00:55:53;;;;;;;6.85;1.48;;;;;;;10.93;100.00;100441.66;6273414;28;20083;-71
2022/09/17 00:58:55;;;;;;;5.22;1.23;;;;;;;11.00;100.00;100447.41;6273773;28;20519;-71
2022/09/17 01:01:57;;;;;;;6.07;1.00;;;;;;;11.00;100.00;100450.06;6265448;28;20410;-72
2022/09/17 01:04:58;;;;;;;3.10;0.82;;;;;;;10.96;100.00;100451.16;6249591;28;20050;-72
2022/09/17 01:08:07;;;;;;;7.22;1.00;;;;;;;10.88;100.00;100453.41;6249435;28;20041;-72
2022/09/17 01:11:25;;;;;;;2.13;0.70;;;;;;;10.83;100.00;100450.19;6248494;28;20065;-72
2022/09/17 01:14:39;;;;;;;4.05;1.02;;;;;;;10.80;100.00;100453.00;6247974;28;20149;-72
2022/09/17 01:17:49;;;;;;;3.53;0.95;;;;;;;10.93;100.00;100454.81;6248298;28;20095;-74
2022/09/17 01:21:26;;;;;;;2.53;1.25;;;;;;;10.98;100.00;100453.69;6248121;28;20046;-74
2022/09/17 01:24:48;;;;;;;1.85;1.20;;;;;;;10.88;100.00;100451.63;6247536;28;20053;-73
2022/09/17 01:28:19;;;;;;;5.43;0.95;;;;;;;10.84;100.00;100447.47;6248346;28;20413;-74
2022/09/17 01:31:30;;;;;;;7.90;0.90;;;;;;;10.96;100.00;100453.78;6247655;28;20084;-73
2022/09/17 01:34:41;;;;;;;4.25;1.02;;;;;;;10.85;100.00;100462.28;6247595;28;20057;-73
2022/09/17 01:37:56;;;;;;;9.02;1.15;;;;;;;10.94;100.00;100468.78;6248016;28;20520;-73
2022/09/17 01:41:06;;;;;;;6.78;2.30;;;;;;;10.88;100.00;100467.38;6247476;28;20050;-72
2022/09/17 01:44:13;;;;;;;3.65;1.20;;;;;;;10.76;100.00;100473.34;6247566;28;20115;-72
2022/09/17 01:47:22;;;;;;;6.97;2.05;;;;;;;10.70;100.00;100478.97;6247551;28;20489;-72
2022/09/17 01:50:29;;;;;;;3.03;1.45;;;;;;;10.78;100.00;100479.38;6247568;28;20463;-73
2022/09/17 01:53:37;;;;;;;7.80;1.27;;;;;;;10.80;100.00;100480.13;6247577;28;20053;-73
2022/09/17 01:56:42;;;;;;;7.65;1.48;;;;;;;10.74;100.00;100483.13;6248339;28;20053;-73
2022/09/17 01:59:50;;;;;;;10.70;1.30;;;;;;;10.73;100.00;100485.84;6249029;28;20052;-73
2022/09/17 02:02:59;;;;;;;10.98;1.77;;;;;;;10.71;100.00;100485.91;6247533;28;20060;-73
2022/09/17 02:06:04;;;;;;;;;;;;;;;10.72;100.00;100490.28;6247321;28;20045;-73
2022/09/17 02:09:10;;;;;;;9.73;1.30;;;;;;;10.57;100.00;100485.88;6248375;28;19921;-73
2022/09/17 02:12:17;;;;;;;5.38;0.55;;;;;;;10.51;100.00;100497.59;6248545;28;20078;-73
2022/09/17 02:15:23;;;;;;;5.85;0.98;;;;;;;10.60;100.00;100498.84;6246909;28;20057;-74
2022/09/17 02:18:30;;;;;;;3.78;0.70;;;;;;;10.51;100.00;100484.44;6262198;28;20056;-72
2022/09/17 02:21:40;;;;;;;1.30;0.75;;;;;;;10.39;100.00;100488.63;6271498;28;20447;-73
2022/09/17 02:24:46;;;;;;;4.03;2.42;;;;;;;10.41;100.00;100481.50;6271280;28;20053;-73
2022/09/17 02:27:57;;;;;;;4.95;0.77;;;;;;;10.41;100.00;100478.88;6271778;28;20053;-74
2022/09/17 02:30:59;;;;;;;3.63;0.60;;;;;;;10.41;100.00;100485.91;6271341;28;20053;-73
2022/09/17 02:34:04;;;;;;;3.25;1.50;;;;;;;10.48;100.00;100484.63;6271184;28;20045;-73
2022/09/17 02:37:06;;;;;;;4.13;2.15;;;;;;;10.40;100.00;100476.31;6271446;28;20045;-73
2022/09/17 02:40:09;;;;;;;6.65;1.15;;;;;;;10.34;100.00;100479.31;6271204;28;20515;-73
2022/09/17 02:43:22;;;;;;;10.30;0.98;;;;;;;10.33;100.00;100480.25;6271357;28;20052;-73
2022/09/17 02:46:50;;;;;;;4.45;0.80;;;;;;;10.31;100.00;100482.97;6271070;28;20056;-73
2022/09/17 02:50:22;;;;;;;7.80;0.82;;;;;;;10.27;100.00;100491.09;6267231;28;20056;-73
2022/09/17 02:53:37;;;;;;;5.13;1.33;;;;;;;10.29;100.00;100489.22;6238322;28;20046;-72
2022/09/17 02:56:45;;;;;;;4.63;0.70;;;;;;;10.35;100.00;100502.84;6245952;28;20459;-73
2022/09/17 02:59:53;;;;;;;1.15;0.47;;;;;;;10.28;100.00;100498.03;6249905;28;20139;-72
2022/09/17 03:02:59;;;;;;;8.30;0.97;;;;;;;10.16;100.00;100495.13;6253675;28;20064;-72
2022/09/17 03:06:02;;;;;;;4.38;0.43;;;;;;;10.25;100.00;100498.22;6250641;28;20050;-73
2022/09/17 03:09:04;;;;;;;6.95;0.73;;;;;;;10.24;100.00;100499.13;6251645;28;20049;-73
2022/09/17 03:12:05;;;;;;;6.93;0.50;;;;;;;10.19;100.00;100493.28;6250959;28;20045;-73
2022/09/17 03:15:08;;;;;;;2.38;0.57;;;;;;;10.21;100.00;100496.66;6250740;28;20061;-72
2022/09/17 03:18:09;;;;;;;8.13;0.98;;;;;;;10.14;100.00;100502.25;6251045;28;20049;-73
2022/09/17 03:21:12;;;;;;;4.13;0.85;;;;;;;10.04;100.00;100508.94;6250416;28;20045;-71
2022/09/17 03:24:13;;;;;;;4.72;0.80;;;;;;;10.03;100.00;100498.50;6250599;28;20049;-72
2022/09/17 03:27:14;;;;;;;11.85;1.38;;;;;;;10.06;100.00;100507.06;6273303;22;20053;-73
2022/09/17 03:30:16;;;;;;;3.58;0.82;;;;;;;10.09;100.00;100516.56;6250236;28;20397;-72
2022/09/17 03:33:17;;;;;;;7.10;1.33;;;;;;;10.05;100.00;100512.44;6250983;28;20050;-73
2022/09/17 03:36:20;;;;;;;11.18;0.98;;;;;;;10.07;100.00;100521.03;6250244;28;20064;-73
2022/09/17 03:39:21;;;;;;;1.90;1.05;;;;;;;10.00;100.00;100528.44;6250685;28;20049;-72
2022/09/17 03:42:22;;;;;;;5.60;0.70;;;;;;;10.08;100.00;100533.25;6250296;28;20052;-72
2022/09/17 03:45:24;;;;;;;1.77;0.80;;;;;;;10.07;100.00;100535.03;6249956;28;20523;-72
2022/09/17 03:48:25;;;;;;;12.35;0.93;;;;;;;10.10;100.00;100523.50;6250149;28;20050;-72
2022/09/17 03:51:28;;;;;;;3.03;1.10;;;;;;;10.02;100.00;100537.06;6250022;28;20045;-72
2022/09/17 03:54:29;;;;;;;8.55;1.27;;;;;;;10.06;100.00;100535.97;6259561;28;20056;-72
2022/09/17 03:57:30;;;;;;;2.63;0.60;;;;;;;10.09;100.00;100540.22;6275262;28;20041;-72
2022/09/17 04:00:32;;;;;;;5.13;1.10;;;;;;;10.15;100.00;100543.34;6268082;28;20056;-72
2022/09/17 04:03:34;;;;;;;7.22;0.80;;;;;;;10.21;100.00;100546.53;6250368;28;20045;-73
2022/09/17 04:06:36;;;;;;;4.57;0.75;;;;;;;10.23;100.00;100540.28;6249413;28;20045;-73
2022/09/17 04:09:38;;;;;;;6.13;0.77;;;;;;;10.18;100.00;100544.97;6249303;28;20052;-73
2022/09/17 04:12:39;;;;;;;3.60;0.98;;;;;;;10.20;100.00;100544.84;6249416;28;20049;-73
2022/09/17 04:15:41;;;;;;;5.05;1.67;;;;;;;10.20;100.00;100543.06;6248888;28;20157;-73
2022/09/17 04:18:42;;;;;;;6.45;0.80;;;;;;;10.19;100.00;100544.00;6249994;28;20045;-72
2022/09/17 04:21:45;;;;;;;3.67;0.77;;;;;;;10.06;100.00;100543.84;6248949;28;20042;-72
2022/09/17 04:24:46;;;;;;;5.68;1.05;;;;;;;10.04;100.00;100542.25;6249364;28;20421;-72
2022/09/17 04:27:47;;;;;;;4.43;0.80;;;;;;;10.00;100.00;100546.81;6249425;28;20049;-72
2022/09/17 04:30:49;;;;;;;6.88;0.57;;;;;;;10.03;100.00;100546.63;6249107;28;20088;-73
2022/09/17 04:33:51;;;;;;;6.50;0.70;;;;;;;9.98;100.00;100556.53;6249199;28;20097;-72
2022/09/17 04:36:53;;;;;;;7.10;1.27;;;;;;;9.93;100.00;100549.84;6249475;28;20415;-72
2022/09/17 04:39:55;;;;;;;6.10;0.95;;;;;;;9.91;100.00;100553.41;6249106;28;20064;-72
2022/09/17 04:43:01;;;;;;;6.10;1.38;;;;;;;9.87;100.00;100546.63;6249503;28;20046;-72
2022/09/17 04:46:03;;;;;;;2.25;0.90;;;;;;;10.02;100.00;100549.34;6248594;28;20538;-73
2022/09/17 04:49:04;;;;;;;5.82;1.70;;;;;;;9.91;100.00;100550.78;6249357;28;20507;-72
2022/09/17 04:52:07;;;;;;;13.32;1.13;;;;;;;9.98;100.00;100555.69;6249092;28;20056;-73
2022/09/17 04:55:09;;;;;;;4.30;0.90;;;;;;;9.84;100.00;100557.25;6248421;28;20049;-72
2022/09/17 04:58:10;;;;;;;6.13;1.08;;;;;;;9.72;100.00;100567.56;6249016;28;20049;-72
2022/09/17 05:01:12;;;;;;;2.10;1.05;;;;;;;9.82;100.00;100568.78;6248380;28;20057;-72
2022/09/17 05:04:13;;;;;;;8.20;0.75;;;;;;;9.77;100.00;100562.94;6248754;28;20132;-73
2022/09/17 05:07:16;;;;;;;5.57;1.33;;;;;;;9.77;100.00;100561.16;6248825;28;20049;-72
2022/09/17 05:10:19;;;;;;;9.13;1.08;;;;;;;9.72;100.00;100565.81;6248320;28;20076;-72
2022/09/17 05:13:21;;;;;;;2.97;1.00;;;;;;;9.61;100.00;100581.25;6248607;28;20046;-72
2022/09/17 05:16:22;;;;;;;1.33;0.70;;;;;;;9.68;100.00;100574.75;6248254;28;20531;-72
2022/09/17 05:19:23;;;;;;;4.03;1.23;;;;;;;9.69;100.00;100578.22;6248617;28;20052;-72
2022/09/17 05:22:26;;;;;;;2.67;0.80;;;;;;;9.57;100.00;100575.31;6247884;28;20045;-72
2022/09/17 05:25:27;;;;;;;2.33;0.50;;;;;;;9.54;100.00;100585.13;6247973;28;20053;-72
2022/09/17 05:28:29;;;;;;;7.05;1.13;;;;;;;9.53;100.00;100578.16;6248613;28;20512;-72
2022/09/17 05:31:30;;;;;;;6.10;0.70;;;;;;;9.52;100.00;100579.94;6249781;28;20401;-72
2022/09/17 05:34:32;;;;;;;2.58;0.73;;;;;;;9.40;100.00;100591.06;6272501;28;20053;-71
2022/09/17 05:37:35;;;;;;;2.35;0.85;;;;;;;9.40;100.00;100581.44;6272709;28;20041;-73
2022/09/17 05:40:37;;;;;;;0.63;0.40;;;;;;;9.38;100.00;100591.16;6272469;28;20041;-72
2022/09/17 05:43:38;;;;;;;2.97;0.60;;;;;;;9.44;100.00;100592.59;6272765;28;20103;-72
2022/09/17 05:46:39;;;;;;;7.57;0.70;;;;;;;9.39;100.00;100594.63;6272307;28;20052;-73
2022/09/17 05:49:41;;;;;;;5.15;1.35;;;;;;;9.37;100.00;100591.22;6272410;28;20057;-72
2022/09/17 05:52:43;;;;;;;4.80;1.00;;;;;;;9.32;100.00;100595.88;6272352;28;20052;-73
2022/09/17 05:55:44;;;;;;;7.15;1.08;;;;;;;9.36;100.00;100593.00;6271961;28;20041;-73
2022/09/17 05:58:46;;;;;;;11.00;0.82;;;;;;;9.33;100.00;100598.41;6272370;28;20041;-73
2022/09/17 06:01:47;;;;;;;13.50;1.10;;;;;;;9.35;100.00;100606.19;6265509;28;20049;-72
2022/09/17 06:04:49;;;;;;;5.07;0.75;;;;;;;9.33;100.00;100611.50;6247266;28;20485;-73
2022/09/17 06:07:51;;;;;;;3.60;0.80;;;;;;;9.30;100.00;100614.28;6247373;28;20056;-72
2022/09/17 06:10:53;;;;;;;8.20;0.93;;;;;;;9.39;100.00;100621.69;6244846;28;20057;-73
2022/09/17 06:13:54;;;;;;;7.35;0.90;;;;;;;9.33;100.00;100622.00;6246537;28;20060;-72
2022/09/17 06:16:56;;;;;;;9.43;1.13;;;;;;;9.35;100.00;100625.38;6246491;28;20076;-73
2022/09/17 06:19:58;;;;;;;3.05;0.70;;;;;;;9.48;100.00;100624.78;6245063;28;20060;-73
2022/09/17 06:23:00;;;;;;;15.27;1.85;;;;;;;9.31;100.00;100629.13;6242983;28;21262;-73
2022/09/17 06:26:03;;;;;;;6.60;0.75;;;;;;;9.40;100.00;100643.50;6245661;28;20056;-73
2022/09/17 06:29:04;;;;;;;2.55;0.95;;;;;;;9.38;100.00;100643.59;6247022;28;20050;-73
2022/09/17 06:32:09;;;;;;;12.35;0.80;;;;;;;9.39;100.00;100633.94;6246678;28;20053;-73
2022/09/17 06:35:11;;;;;;;3.65;1.17;;;;;;;9.28;100.00;100633.66;6244823;28;20120;-73
2022/09/17 06:38:13;;;;;;;7.43;1.02;;;;;;;9.22;100.00;100636.56;6246437;28;20038;-73
2022/09/17 06:41:15;;;;;;;6.82;0.90;;;;;;;9.23;100.00;100644.38;6240464;28;20057;-72
2022/09/17 06:44:17;;;;;;;5.32;1.00;;;;;;;9.36;100.00;100649.88;6242389;28;20090;-73
2022/09/17 06:47:18;;;;;;;7.50;1.15;;;;;;;9.37;100.00;100646.31;6237120;28;20057;-73
2022/09/17 06:50:20;;;;;;;3.17;0.63;;;;;;;9.45;100.00;100640.66;6245100;28;20334;-73
2022/09/17 06:53:23;;;;;;;4.65;1.15;;;;;;;9.50;100.00;100630.81;6244846;28;20056;-73
2022/09/17 06:56:24;;;;;;;6.65;0.77;;;;;;;9.46;100.00;100637.97;6245232;28;20041;-72
2022/09/17 06:59:27;;;;;;;7.75;0.80;;;;;;;9.53;100.00;100620.13;6245505;28;20049;-73
2022/09/17 07:02:28;;;;;;;9.45;0.95;;;;;;;9.47;100.00;100634.41;6245428;28;20508;-72
2022/09/17 07:05:31;;;;;;;8.15;0.75;;;;;;;9.47;100.00;100623.94;6246063;28;20053;-73
2022/09/17 07:08:34;;;;;;;9.52;1.08;;;;;;;9.59;100.00;100625.94;6246419;28;20046;-72
2022/09/17 07:11:35;;;;;;;5.30;0.95;;;;;;;9.55;100.00;100624.41;6246032;28;20054;-73
2022/09/17 07:14:36;;;;;;;3.33;0.80;;;;;;;9.68;100.00;100627.25;6245842;28;20056;-73
2022/09/17 07:17:39;;;;;;;4.50;0.68;;;;;;;9.68;100.00;100622.00;6246245;28;20042;-73
2022/09/17 07:20:40;;;;;;;4.72;1.20;;;;;;;9.72;100.00;100630.53;6245280;28;20484;-72
2022/09/17 07:23:43;;;;;;;7.25;1.08;;;;;;;9.80;100.00;100625.75;6245838;28;20053;-73
2022/09/17 07:26:44;;;;;;;11.63;1.25;;;;;;;9.85;100.00;100627.19;6245638;28;20423;-71
2022/09/17 07:29:46;;;;;;;6.03;1.20;;;;;;;9.89;100.00;100628.72;6245851;28;20045;-73
2022/09/17 07:32:47;;;;;;;1.63;0.60;;;;;;;9.92;100.00;100622.47;6246144;28;20056;-72
2022/09/17 07:35:52;;;;;;;3.92;0.98;;;;;;;10.02;100.00;100626.31;6245676;28;20408;-72
2022/09/17 07:38:55;;;;;;;6.47;0.93;;;;;;;10.14;100.00;100633.53;6246042;28;20515;-73
2022/09/17 07:41:56;;;;;;;0.75;0.45;;;;;;;10.17;100.00;100632.53;6245590;28;20045;-73
2022/09/17 07:44:57;;;;;;;1.52;0.60;;;;;;;10.20;100.00;100624.50;6247195;28;20057;-72
2022/09/17 07:47:59;;;;;;;7.10;1.20;;;;;;;10.36;100.00;100622.78;6250329;28;20184;-72
2022/09/17 07:51:00;;;;;;;7.43;1.17;;;;;;;10.40;100.00;100618.19;6250476;28;20054;-74
2022/09/17 07:54:05;;;;;;;7.10;0.60;;;;;;;10.42;100.00;100616.31;6250168;28;20077;-74
2022/09/17 07:57:06;;;;;;;5.13;1.52;;;;;;;10.46;100.00;100611.75;6250266;28;20416;-75
2022/09/17 08:00:08;;;;;;;6.22;1.90;;;;;;;10.61;100.00;100624.03;6249878;28;20050;-75
2022/09/17 08:03:09;;;;;;;7.63;0.77;;;;;;;10.62;100.00;100626.56;6250431;28;20045;-74
2022/09/17 08:06:13;;;;;;;1.13;0.50;;;;;;;10.68;100.00;100617.53;6249697;28;20053;-74
2022/09/17 08:09:17;;;;;;;5.15;0.77;;;;;;;10.73;100.00;100617.28;6250289;28;20049;-75
2022/09/17 08:12:18;;;;;;;10.50;1.05;;;;;;;10.80;100.00;100610.72;6249186;28;20046;-74
2022/09/17 08:15:20;;;;;;;5.13;1.35;;;;;;;10.96;100.00;100600.19;6248949;28;20049;-74
2022/09/17 08:18:21;;;;;;;7.13;2.05;;;;;;;11.07;100.00;100598.63;6249655;28;20068;-74
2022/09/17 08:21:23;;;;;;;8.90;1.67;;;;;;;11.30;100.00;100612.22;6248988;28;20053;-75
2022/09/17 08:24:26;;;;;;;6.22;1.15;;;;;;;11.29;100.00;100614.00;6249103;28;20052;-75
2022/09/17 08:27:29;;;;;;;10.57;1.08;;;;;;;11.36;100.00;100604.00;6243045;28;20046;-74
2022/09/17 08:30:31;;;;;;;1.30;0.57;;;;;;;11.43;100.00;100621.09;6253445;28;20046;-74
2022/09/17 08:33:34;;;;;;;3.15;0.68;;;;;;;11.51;100.00;100600.44;6259811;28;20056;-75
2022/09/17 08:36:36;;;;;;;1.67;0.80;;;;;;;11.55;100.00;100595.84;6255748;28;20072;-74
2022/09/17 08:39:38;;;;;;;2.95;0.63;;;;;;;11.63;100.00;100604.97;6250994;28;20103;-75
2022/09/17 08:42:52;;;;;;;6.07;1.08;;;;;;;11.63;100.00;100599.72;6249209;28;20420;-74
2022/09/17 08:45:55;;;;;;;7.82;1.80;;;;;;;11.68;100.00;100589.75;6248867;28;20058;-75
2022/09/17 08:49:07;;;;;;;5.50;1.00;;;;;;;11.72;99.56;100590.41;6249432;28;20052;-74
2022/09/17 08:52:28;;;;;;;1.60;0.57;;;;;;;11.79;100.00;100591.72;6248729;28;20058;-73
2022/09/17 08:55:39;;;;;;;2.70;0.57;;;;;;;11.88;100.00;100596.47;6248615;28;20057;-74
2022/09/17 08:58:55;;;;;;;4.13;0.85;;;;;;;11.96;100.00;100590.72;6248577;28;20465;-75
2022/09/17 09:02:00;;;;;;;7.03;0.80;;;;;;;12.02;98.14;100592.97;6248819;28;20184;-75
2022/09/17 09:05:12;;;;;;;8.95;1.08;;;;;;;12.15;96.62;100603.59;6248593;28;20575;-75
2022/09/17 09:08:18;;;;;;;7.18;0.90;;;;;;;12.22;94.79;100598.78;6249109;28;20053;-75
2022/09/17 09:11:25;;;;;;;5.45;1.05;;;;;;;12.17;94.66;100591.16;6248409;28;20045;-74
2022/09/17 09:14:32;;;;;;;4.10;0.70;;;;;;;12.18;91.23;100603.44;6248503;28;20045;-74
2022/09/17 09:17:41;;;;;;;6.07;1.02;;;;;;;12.18;93.88;100590.25;6248911;28;20519;-75
2022/09/17 09:20:52;;;;;;;4.28;0.75;;;;;;;12.29;90.04;100592.19;6248170;28;20393;-73
2022/09/17 09:23:57;;;;;;;1.38;0.50;;;;;;;12.32;92.64;100581.47;6248028;28;20497;-74
2022/09/17 09:27:13;;;;;;;4.63;1.20;;;;;;;12.42;90.98;100585.22;6248810;28;20132;-74
2022/09/17 09:30:17;;;;;;;3.85;0.50;;;;;;;12.49;92.36;100588.28;6247981;28;20049;-75
2022/09/17 09:33:26;;;;;;;3.17;0.93;;;;;;;12.47;89.76;100596.31;6248616;28;20054;-75
2022/09/17 09:36:29;;;;;;;4.38;1.35;;;;;;;12.49;86.68;100599.72;6247677;28;20049;-75
2022/09/17 09:39:34;;;;;;;2.53;0.68;;;;;;;12.65;83.57;100604.84;6248116;28;20049;-74
2022/09/17 09:42:39;;;;;;;3.70;0.57;;;;;;;12.80;81.95;100589.81;6247578;28;20045;-73
2022/09/17 09:45:54;;;;;;;7.90;0.85;;;;;;;12.79;81.55;100585.47;6247711;28;20061;-75
2022/09/17 09:49:08;;;;;;;1.75;0.30;;;;;;;12.94;81.25;100595.91;6248026;28;20515;-72
2022/09/17 09:52:22;;;;;;;5.82;0.75;;;;;;;13.02;80.31;100591.88;6247685;28;20520;-73
2022/09/17 09:55:41;;;;;;;10.13;1.48;;;;;;;13.11;81.22;100583.38;6247604;28;20076;-74
2022/09/17 09:58:44;;;;;;;;;;;;;;;13.17;78.31;100580.31;6247987;28;20052;-75
2022/09/17 10:01:45;;;;;;;2.15;0.57;;;;;;;13.21;77.79;100577.34;6247659;28;19921;-72
2022/09/17 10:04:46;;;;;;;4.82;0.68;;;;;;;13.21;77.53;100585.28;6247245;28;20050;-75
2022/09/17 10:07:48;;;;;;;7.38;1.30;;;;;;;13.24;80.76;100579.00;6247758;28;20497;-75
2022/09/17 10:10:58;;;;;;;9.50;1.20;;;;;;;13.32;78.84;100574.03;6247138;28;20041;-75
2022/09/17 10:14:15;;;;;;;7.20;1.40;;;;;;;13.30;77.54;100585.66;6247046;28;20057;-74
2022/09/17 10:17:20;;;;;;;5.40;0.90;;;;;;;13.36;78.92;100577.34;6247636;28;20053;-75
2022/09/17 10:20:21;;;;;;;6.75;2.00;;;;;;;13.51;76.18;100565.72;6246741;28;20136;-76
2022/09/17 10:23:25;;;;;;;7.95;1.02;;;;;;;13.31;75.95;100571.53;6247115;28;20045;-74
2022/09/17 10:26:30;;;;;;;2.92;0.80;;;;;;;13.28;76.57;100572.56;6246574;28;20045;-74
2022/09/17 10:29:33;;;;;;;6.53;0.80;;;;;;;13.18;75.30;100577.59;6246983;28;20053;-75
2022/09/17 10:32:35;;;;;;;4.13;0.82;;;;;;;13.14;72.90;100567.34;6246940;28;20053;-73
2022/09/17 10:35:36;;;;;;;2.35;0.68;;;;;;;13.14;72.56;100580.53;6246538;28;20055;-74
2022/09/17 10:38:39;;;;;;;3.63;0.60;;;;;;;13.00;74.12;100583.25;6246699;28;20052;-74
2022/09/17 10:41:53;;;;;;;3.83;1.65;;;;;;;12.97;75.97;100571.09;6246643;28;20060;-74
2022/09/17 10:44:57;;;;;;;2.88;0.65;;;;;;;13.08;77.41;100575.63;6246400;28;20466;-75
2022/09/17 10:48:00;;;;;;;2.63;0.95;;;;;;;13.24;75.41;100581.63;6247091;28;20056;-74
2022/09/17 10:51:02;;;;;;;3.10;1.02;;;;;;;13.10;75.92;100579.03;6246436;28;20053;-74
2022/09/17 10:54:29;;;;;;;2.55;0.60;;;;;;;13.25;76.30;100567.47;6246348;28;20195;-73
2022/09/17 10:57:52;;;;;;;4.95;0.93;;;;;;;13.20;76.42;100570.41;6247476;28;20050;-78
2022/09/17 11:01:09;;;;;;;1.75;0.75;;;;;;;12.97;78.18;100559.69;6247309;28;20053;-78
2022/09/17 11:04:22;;;;;;;7.78;0.85;;;;;;;12.93;81.66;100578.34;6248494;28;20050;-78
2022/09/17 11:07:33;;;;;;;5.15;0.98;;;;;;;12.84;83.37;100578.13;6246426;28;20519;-75
2022/09/17 11:10:41;;;;;;;2.75;1.02;;;;;;;12.78;84.21;100571.44;6246366;28;20180;-74
2022/09/17 11:13:52;;;;;;;0.65;0.50;;;;;;;12.74;83.05;100579.66;6246412;28;20053;-74
2022/09/17 11:17:07;;;;;;;6.20;0.52;;;;;;;12.73;87.21;100585.88;6246653;28;20060;-75
2022/09/17 11:20:22;;;;;;;2.08;0.55;;;;;;;12.40;90.58;100585.31;6247827;28;20053;-74
2022/09/17 11:23:41;;;;;;;1.60;0.40;;;;;;;11.86;93.66;100585.19;6251691;28;20049;-74
2022/09/17 11:26:48;;;;;;;0.65;0.30;;;;;;;11.71;97.54;100598.38;6251038;28;20059;-74
2022/09/17 11:30:03;;;;;;;1.23;0.65;;;;;;;11.58;100.00;100590.38;6250994;28;20046;-76
2022/09/17 11:33:25;;;;;;;4.35;0.43;;;;;;;11.32;100.00;100587.53;6250887;28;20049;-75
2022/09/17 11:36:31;;;;;;;3.88;0.63;;;;;;;11.32;100.00;100570.91;6250720;28;20096;-75
2022/09/17 11:39:40;;;;;;;0.82;0.45;;;;;;;11.20;100.00;100592.66;6250753;28;20041;-75
2022/09/17 11:42:48;;;;;;;6.30;1.65;;;;;;;11.18;100.00;100603.28;6250760;28;20053;-75
2022/09/17 11:45:59;;;;;;;1.95;0.85;;;;;;;11.17;100.00;100605.06;6250593;28;20052;-75
2022/09/17 11:49:10;;;;;;;3.72;0.75;;;;;;;10.94;100.00;100602.88;6250650;28;20067;-74
2022/09/17 11:52:18;;;;;;;0.30;0.30;;;;;;;10.81;100.00;100588.75;6250457;28;20042;-74
2022/09/17 11:55:26;;;;;;;4.32;0.52;;;;;;;10.56;100.00;100587.50;6250497;28;20057;-75
2022/09/17 11:58:38;;;;;;;7.18;1.38;;;;;;;10.46;100.00;100567.94;6250738;28;20050;-74
2022/09/17 12:01:44;;;;;;;1.02;0.38;;;;;;;10.44;100.00;100577.66;6249913;28;20412;-74
2022/09/17 12:04:55;;;;;;;0.70;0.50;;;;;;;10.41;100.00;100576.06;6250200;28;20057;-74
2022/09/17 12:08:05;;;;;;;2.53;0.50;;;;;;;10.41;100.00;100583.97;6250193;28;20056;-74
2022/09/17 12:11:11;;;;;;;5.32;0.75;;;;;;;10.52;100.00;100580.72;6250057;28;20056;-74
2022/09/17 12:14:20;;;;;;;0.93;0.40;;;;;;;10.44;100.00;100585.56;6249721;28;20046;-74
2022/09/17 12:17:24;;;;;;;0.68;0.52;;;;;;;10.52;100.00;100579.88;6250109;28;20049;-73
2022/09/17 12:20:31;;;;;;;3.33;0.55;;;;;;;10.62;100.00;100571.38;6249419;28;20483;-72
2022/09/17 12:23:38;;;;;;;4.82;1.30;;;;;;;10.63;100.00;100570.47;6250124;28;20053;-72
2022/09/17 12:27:04;;;;;;;7.00;1.20;;;;;;;10.83;100.00;100571.97;6249337;28;20053;-73
2022/09/17 12:30:12;;;;;;;2.25;0.60;;;;;;;11.00;100.00;100578.91;6243044;28;20045;-73
2022/09/17 12:33:23;;;;;;;1.65;0.70;;;;;;;11.10;100.00;100571.31;6248732;28;20049;-73
2022/09/17 12:36:37;;;;;;;8.13;1.25;;;;;;;11.17;100.00;100562.09;6249129;28;20057;-73
2022/09/17 12:40:02;;;;;;;5.57;0.63;;;;;;;11.21;100.00;100570.66;6249361;28;20052;-73
2022/09/17 12:43:37;;;;;;;2.38;0.75;;;;;;;11.12;100.00;100574.69;6249642;28;20057;-73
2022/09/17 12:46:59;;;;;;;5.60;0.63;;;;;;;11.12;100.00;100601.81;6248838;28;20567;-73
2022/09/17 12:50:13;;;;;;;6.57;0.82;;;;;;;11.01;100.00;100580.56;6249116;28;20052;-73
2022/09/17 12:53:23;;;;;;;1.20;0.73;;;;;;;10.83;100.00;100586.88;6249290;28;20401;-73
2022/09/17 12:56:39;;;;;;;3.67;0.57;;;;;;;10.88;100.00;100583.06;6248667;28;20060;-72
2022/09/17 12:59:48;;;;;;;1.88;0.28;;;;;;;10.72;100.00;100565.59;6248674;28;20116;-71
2022/09/17 13:03:00;;;;;;;0.70;0.32;;;;;;;10.74;100.00;100566.38;6245732;28;20052;-72
2022/09/17 13:06:28;;;;;;;1.45;0.55;;;;;;;10.62;100.00;100567.91;6248279;28;20041;-73
2022/09/17 13:10:17;;;;;;;1.90;0.45;;;;;;;10.59;100.00;100555.81;6249023;28;20068;-72
2022/09/17 13:13:32;;;;;;;7.50;0.30;;;;;;;10.57;100.00;100547.16;6237760;28;20056;-72
2022/09/17 13:16:39;;;;;;;0.98;0.60;;;;;;;10.64;100.00;100555.56;6247334;28;20065;-71
2022/09/17 13:19:47;;;;;;;5.25;1.00;;;;;;;10.67;100.00;100552.72;6248504;28;20046;-72
2022/09/17 13:22:51;;;;;;;0.50;0.30;;;;;;;10.77;100.00;100547.81;6248551;28;20489;-72
2022/09/17 13:25:54;;;;;;;3.30;0.75;;;;;;;10.84;100.00;100547.38;6223483;28;20057;-71
2022/09/17 13:28:55;;;;;;;1.30;0.35;;;;;;;10.92;100.00;100545.16;6223963;28;20056;-71
2022/09/17 13:31:57;;;;;;;3.63;0.50;;;;;;;10.93;100.00;100538.09;6223261;28;20050;-70
2022/09/17 13:35:19;;;;;;;0.30;0.30;;;;;;;10.99;100.00;100535.13;6223345;28;20524;-70
2022/09/17 13:38:22;;;;;;;2.75;0.45;;;;;;;11.01;100.00;100527.16;6220527;28;20559;-70
2022/09/17 13:41:26;;;;;;;1.02;0.50;;;;;;;11.13;100.00;100518.53;6236954;28;20524;-72
2022/09/17 13:44:28;;;;;;;3.97;0.50;;;;;;;11.03;100.00;100528.72;6222499;28;20050;-72
2022/09/17 13:47:31;;;;;;;3.03;0.40;;;;;;;11.17;100.00;100534.06;6223350;28;20476;-72
2022/09/17 13:50:35;;;;;;;1.23;0.60;;;;;;;11.29;100.00;100534.25;6230438;28;20053;-72
2022/09/17 13:53:37;;;;;;;2.97;1.65;;;;;;;11.43;100.00;100529.00;6230414;28;20054;-72
2022/09/17 13:56:44;;;;;;;4.45;0.75;;;;;;;11.63;100.00;100526.00;6230067;28;20103;-72
2022/09/17 13:59:54;;;;;;;4.32;0.65;;;;;;;11.58;100.00;100533.34;6237681;28;20187;-72
2022/09/17 14:03:47;;;;;;;1.67;0.73;;;;;;;11.78;100.00;100521.59;6230225;28;20065;-72
2022/09/17 14:06:52;;;;;;;0.70;0.35;;;;;;;11.88;100.00;100525.38;6137417;28;20058;-73
2022/09/17 14:09:55;;;;;;;5.13;0.52;;;;;;;11.89;100.00;100526.19;6247440;28;20056;-73
2022/09/17 14:13:24;;;;;;;2.15;0.43;;;;;;;12.01;100.00;100530.72;6247197;28;20046;-72
2022/09/17 14:16:49;;;;;;;3.28;0.68;;;;;;;12.06;100.00;100523.38;6247006;28;20056;-74
2022/09/17 14:19:52;;;;;;;4.85;0.70;;;;;;;12.16;100.00;100528.91;6244312;28;20452;-72